createdAt,value
2023-04-23T00:00:49.415Z,21.30
2023-04-23T00:03:19.865Z,24.32
2023-04-23T00:05:50.281Z,23.25
2023-04-23T00:08:19.443Z,28.65
2023-04-23T00:10:48.569Z,26.65
2023-04-23T00:13:19.536Z,26.55
2023-04-23T00:15:48.092Z,23.35
2023-04-23T00:18:17.269Z,25.45
2023-04-23T00:20:45.558Z,28.42
2023-04-23T00:23:13.479Z,26.95
2023-04-23T00:25:41.445Z,24.63
2023-04-23T00:28:08.989Z,29.02
2023-04-23T00:30:38.009Z,28.60
2023-04-23T00:33:05.900Z,24.18
2023-04-23T00:35:33.871Z,26.52
2023-04-23T00:38:01.348Z,28.35
2023-04-23T00:40:29.104Z,29.50
2023-04-23T00:42:58.483Z,26.42
2023-04-23T00:45:26.268Z,27.22
2023-04-23T00:47:54.621Z,25.68
2023-04-23T00:50:22.414Z,24.92
2023-04-23T00:52:50.344Z,26.00
2023-04-23T00:55:19.882Z,26.57
2023-04-23T00:57:48.455Z,32.90
2023-04-23T01:00:17.962Z,25.97
2023-04-23T01:02:47.697Z,29.37
2023-04-23T01:05:18.516Z,26.27
2023-04-23T01:07:47.269Z,29.20
2023-04-23T01:10:15.051Z,26.20
2023-04-23T01:12:42.343Z,28.12
2023-04-23T01:15:10.816Z,26.42
2023-04-23T01:17:38.651Z,27.98
2023-04-23T01:20:09.852Z,29.50
2023-04-23T01:22:38.676Z,31.12
2023-04-23T01:25:08.437Z,39.63
2023-04-23T01:27:36.395Z,28.73
2023-04-23T01:30:06.249Z,28.27
2023-04-23T01:32:35.213Z,26.80
2023-04-23T01:35:04.897Z,29.30
2023-04-23T01:37:34.195Z,28.55
2023-04-23T01:40:01.680Z,29.98
2023-04-23T01:42:29.679Z,29.23
2023-04-23T01:44:57.478Z,29.65
2023-04-23T01:47:25.678Z,29.42
2023-04-23T01:49:53.096Z,29.35
2023-04-23T01:52:20.701Z,26.77
2023-04-23T01:54:48.830Z,29.90
2023-04-23T01:57:16.826Z,29.65
2023-04-23T01:59:44.535Z,31.60
2023-04-23T02:02:14.215Z,27.45
2023-04-23T02:04:45.501Z,30.02
2023-04-23T02:07:13.488Z,27.85
2023-04-23T02:09:41.576Z,28.60
2023-04-23T02:12:12.596Z,28.83
2023-04-23T02:14:40.506Z,26.70
2023-04-23T02:17:08.262Z,32.13
2023-04-23T02:19:36.097Z,27.85
2023-04-23T02:22:03.797Z,27.50
2023-04-23T02:24:31.960Z,27.05
2023-04-23T02:27:00.115Z,31.37
2023-04-23T02:29:27.669Z,30.17
2023-04-23T02:31:55.646Z,28.85
2023-04-23T02:34:23.397Z,29.95
2023-04-23T02:36:54.353Z,28.42
2023-04-23T02:39:22.105Z,26.60
2023-04-23T02:41:50.534Z,29.30
2023-04-23T02:44:17.935Z,30.60
2023-04-23T02:46:45.582Z,28.42
2023-04-23T02:49:15.158Z,26.65
2023-04-23T02:51:43.881Z,25.82
2023-04-23T02:54:14.733Z,27.87
2023-04-23T02:56:42.426Z,26.97
2023-04-23T02:59:09.959Z,24.55
2023-04-23T03:01:37.878Z,28.15
2023-04-23T03:04:06.597Z,31.25
2023-04-23T03:06:36.191Z,30.17
2023-04-23T03:09:04.078Z,30.70
2023-04-23T03:11:32.476Z,26.87
2023-04-23T03:14:00.260Z,24.87
2023-04-23T03:16:29.480Z,24.95
2023-04-23T03:18:57.701Z,26.23
2023-04-23T03:21:25.802Z,25.30
2023-04-23T03:23:53.630Z,29.35
2023-04-23T03:26:21.250Z,24.77
2023-04-23T03:28:49.802Z,24.20
2023-04-23T03:31:17.408Z,22.85
2023-04-23T03:33:49.575Z,25.45
2023-04-23T03:36:19.017Z,27.93
2023-04-23T03:38:46.579Z,26.95
2023-04-23T03:41:14.740Z,24.57
2023-04-23T03:43:43.128Z,25.62
2023-04-23T03:46:15.992Z,24.55
2023-04-23T03:48:44.087Z,25.30
2023-04-23T03:51:14.045Z,26.07
2023-04-23T03:53:46.712Z,25.52
2023-04-23T03:56:18.389Z,26.48
2023-04-23T03:58:51.065Z,25.77
2023-04-23T04:01:18.779Z,23.38
2023-04-23T04:03:46.749Z,24.60
2023-04-23T04:06:14.403Z,24.02
2023-04-23T04:08:42.001Z,24.00
2023-04-23T04:11:09.530Z,25.97
2023-04-23T04:13:37.685Z,26.17
2023-04-23T04:16:05.722Z,24.55
2023-04-23T04:18:33.892Z,28.70
2023-04-23T04:21:02.029Z,23.50
2023-04-23T04:23:30.547Z,26.42
2023-04-23T04:26:02.854Z,24.52
2023-04-23T04:28:30.822Z,24.27
2023-04-23T04:30:58.711Z,24.23
2023-04-23T04:33:26.456Z,26.50
2023-04-23T04:35:55.079Z,24.30
2023-04-23T04:38:23.476Z,22.45
2023-04-23T04:40:50.765Z,25.17
2023-04-23T04:43:18.941Z,25.68
2023-04-23T04:45:46.929Z,27.07
2023-04-23T04:48:14.747Z,27.25
2023-04-23T04:50:42.769Z,24.25
2023-04-23T04:53:10.825Z,24.07
2023-04-23T04:55:38.605Z,25.85
2023-04-23T04:58:06.388Z,28.07
2023-04-23T05:00:34.821Z,28.62
2023-04-23T05:03:02.993Z,25.15
2023-04-23T05:05:33.102Z,26.45
2023-04-23T05:08:02.390Z,23.70
2023-04-23T05:10:31.010Z,24.30
2023-04-23T05:12:58.751Z,27.37
2023-04-23T05:15:28.283Z,24.05
2023-04-23T05:17:59.208Z,27.85
2023-04-23T05:20:27.510Z,26.80
2023-04-23T05:22:55.436Z,25.65
2023-04-23T05:25:23.145Z,27.20
2023-04-23T05:27:51.410Z,28.40
2023-04-23T05:30:19.005Z,24.05
2023-04-23T05:32:47.420Z,26.33
2023-04-23T05:35:15.123Z,29.45
2023-04-23T05:37:43.882Z,24.07
2023-04-23T05:40:12.289Z,24.77
2023-04-23T05:42:40.312Z,25.02
2023-04-23T05:45:09.536Z,28.00
2023-04-23T05:47:37.884Z,25.40
2023-04-23T05:50:07.844Z,27.82
2023-04-23T05:52:37.794Z,27.95
2023-04-23T05:55:09.862Z,25.00
2023-04-23T05:57:39.280Z,27.07
2023-04-23T06:00:10.202Z,26.45
2023-04-23T06:02:44.019Z,23.60
2023-04-23T06:05:12.843Z,26.27
2023-04-23T06:07:41.475Z,26.90
2023-04-23T06:10:09.756Z,24.80
2023-04-23T06:12:39.126Z,26.60
2023-04-23T06:15:13.710Z,28.60
2023-04-23T06:17:41.337Z,26.95
2023-04-23T06:20:11.158Z,24.18
2023-04-23T06:22:39.007Z,26.80
2023-04-23T06:25:07.572Z,31.10
2023-04-23T06:27:35.603Z,25.02
2023-04-23T06:30:06.430Z,26.50
2023-04-23T06:32:34.376Z,26.68
2023-04-23T06:35:02.591Z,25.40
2023-04-23T06:37:31.973Z,26.12
2023-04-23T06:40:00.675Z,29.57
2023-04-23T06:42:28.161Z,26.97
2023-04-23T06:45:15.790Z,27.82
2023-04-23T06:47:43.909Z,24.77
2023-04-23T06:50:12.973Z,26.82
2023-04-23T06:52:43.180Z,29.75
2023-04-23T06:55:14.627Z,28.00
2023-04-23T06:57:43.089Z,33.33
2023-04-23T07:00:13.266Z,25.97
2023-04-23T07:02:42.666Z,28.32
2023-04-23T07:05:14.271Z,27.65
2023-04-23T07:07:44.615Z,29.75
2023-04-23T07:10:17.050Z,34.20
2023-04-23T07:12:44.667Z,30.20
2023-04-23T07:15:13.924Z,30.75
2023-04-23T07:17:41.936Z,29.30
2023-04-23T07:20:10.245Z,29.70
2023-04-23T07:22:37.694Z,30.02
2023-04-23T07:25:06.423Z,28.90
2023-04-23T07:27:35.569Z,29.55
2023-04-23T07:30:04.926Z,27.60
2023-04-23T07:32:32.893Z,27.60
2023-04-23T07:35:04.301Z,30.97
2023-04-23T07:37:32.383Z,31.50
2023-04-23T07:40:03.191Z,28.38
2023-04-23T07:42:31.973Z,35.33
2023-04-23T07:44:59.983Z,27.10
2023-04-23T07:47:27.638Z,28.73
2023-04-23T07:49:57.274Z,29.32
2023-04-23T07:52:25.081Z,32.65
2023-04-23T07:54:53.304Z,30.20
2023-04-23T07:57:21.329Z,29.23
2023-04-23T07:59:49.332Z,31.15
2023-04-23T08:02:18.798Z,26.68
2023-04-23T08:04:47.056Z,29.10
2023-04-23T08:07:15.107Z,32.58
2023-04-23T08:09:43.625Z,28.32
2023-04-23T08:12:11.761Z,32.13
2023-04-23T08:14:40.925Z,26.85
2023-04-23T08:17:09.918Z,36.03
2023-04-23T08:19:39.553Z,28.30
2023-04-23T08:22:07.205Z,28.87
2023-04-23T08:24:35.062Z,28.40
2023-04-23T08:27:03.689Z,31.87
2023-04-23T08:29:31.534Z,29.07
2023-04-23T08:31:59.155Z,33.45
2023-04-23T08:34:27.529Z,30.25
2023-04-23T08:36:55.433Z,28.30
2023-04-23T08:39:23.346Z,30.50
2023-04-23T08:41:56.458Z,31.48
2023-04-23T08:44:26.209Z,32.70
2023-04-23T08:46:55.348Z,31.97
2023-04-23T08:49:22.792Z,34.78
2023-04-23T08:51:56.518Z,33.02
2023-04-23T08:54:27.262Z,32.53
2023-04-23T08:56:58.944Z,29.27
2023-04-23T08:59:29.518Z,32.08
2023-04-23T09:01:58.220Z,29.72
2023-04-23T09:04:26.318Z,30.17
2023-04-23T09:06:54.214Z,29.82
2023-04-23T09:09:24.925Z,27.13
2023-04-23T09:11:55.087Z,29.42
2023-04-23T09:14:25.718Z,22.75
2023-04-23T09:16:55.665Z,26.75
2023-04-23T09:19:25.848Z,26.02
2023-04-23T09:21:54.639Z,24.45
2023-04-23T09:24:26.458Z,24.10
2023-04-23T09:26:55.482Z,23.47
2023-04-23T09:29:24.758Z,24.35
2023-04-23T09:31:55.869Z,21.35
2023-04-23T09:34:25.485Z,21.85
2023-04-23T09:36:53.999Z,20.52
2023-04-23T09:39:26.136Z,18.02
2023-04-23T09:41:54.442Z,18.37
2023-04-23T09:44:23.385Z,19.02
2023-04-23T09:46:51.254Z,14.05
2023-04-23T09:49:18.828Z,15.78
2023-04-23T09:51:48.931Z,15.50
2023-04-23T09:54:23.058Z,17.27
2023-04-23T09:56:54.016Z,14.78
2023-04-23T09:59:46.304Z,14.60
2023-04-23T10:02:06.004Z,16.75
2023-04-23T10:04:35.258Z,12.98
2023-04-23T10:07:18.164Z,14.40
2023-04-23T10:09:35.243Z,16.62
2023-04-23T10:12:03.997Z,17.37
2023-04-23T10:14:32.020Z,17.92
2023-04-23T10:17:05.284Z,15.95
2023-04-23T10:19:34.771Z,17.07
2023-04-23T10:22:18.583Z,15.43
2023-04-23T10:24:42.255Z,17.52
2023-04-23T10:27:28.374Z,19.80
2023-04-23T10:29:48.678Z,17.65
2023-04-23T10:32:17.886Z,16.82
2023-04-23T10:34:46.224Z,20.15
2023-04-23T10:37:15.944Z,19.50
2023-04-23T10:39:46.730Z,24.80
2023-04-23T10:42:14.597Z,21.35
2023-04-23T10:47:15.766Z,21.23
2023-04-23T10:49:44.908Z,25.90
2023-04-23T10:52:21.464Z,20.92
2023-04-23T10:54:52.771Z,20.17
2023-04-23T10:57:22.110Z,18.07
2023-04-23T10:59:55.262Z,17.27
2023-04-23T11:02:25.340Z,17.07
2023-04-23T11:04:57.537Z,16.20
2023-04-23T11:07:33.904Z,15.23
2023-04-23T11:10:13.565Z,14.18
2023-04-23T11:12:41.877Z,14.70
2023-04-23T11:15:15.489Z,18.42
2023-04-23T11:17:49.573Z,15.40
2023-04-23T11:20:22.053Z,13.30
2023-04-23T11:22:53.953Z,10.90
2023-04-23T11:25:24.435Z,13.62
2023-04-23T11:27:54.110Z,10.48
2023-04-23T11:30:24.550Z,11.22
2023-04-23T11:32:54.928Z,10.53
2023-04-23T11:35:27.222Z,10.93
2023-04-23T11:37:55.505Z,10.00
2023-04-23T11:40:24.675Z,7.70
2023-04-23T11:42:55.884Z,9.28
2023-04-23T11:45:29.012Z,8.95
2023-04-23T11:47:59.153Z,8.35
2023-04-23T11:50:37.732Z,8.25
2023-04-23T11:53:08.153Z,8.60
2023-04-23T11:55:36.497Z,10.38
2023-04-23T11:58:05.982Z,8.25
2023-04-23T12:00:34.485Z,7.33
2023-04-23T12:03:04.702Z,6.83
2023-04-23T12:05:35.651Z,10.20
2023-04-23T12:08:16.507Z,6.78
2023-04-23T12:11:02.713Z,6.12
2023-04-23T12:13:33.594Z,6.03
2023-04-23T12:16:02.977Z,5.47
2023-04-23T12:18:35.926Z,6.80
2023-04-23T12:21:08.362Z,9.80
2023-04-23T12:23:40.158Z,9.13
2023-04-23T12:26:16.342Z,6.67
2023-04-23T12:29:00.225Z,6.95
2023-04-23T12:31:29.893Z,8.75
2023-04-23T12:34:08.532Z,8.33
2023-04-23T12:36:40.524Z,5.35
2023-04-23T12:39:24.407Z,5.35
2023-04-23T12:41:54.330Z,6.53
2023-04-23T12:44:22.717Z,5.80
2023-04-23T12:46:57.487Z,7.22
2023-04-23T12:49:28.798Z,7.33
2023-04-23T12:52:03.822Z,6.65
2023-04-23T12:54:38.577Z,7.05
2023-04-23T12:57:11.264Z,8.45
2023-04-23T12:59:39.322Z,6.97
2023-04-23T13:02:07.419Z,5.97
2023-04-23T13:04:37.426Z,6.87
2023-04-23T13:07:12.979Z,8.33
2023-04-23T13:09:42.017Z,7.25
2023-04-23T13:12:09.989Z,6.55
2023-04-23T13:14:40.763Z,5.53
2023-04-23T13:17:08.500Z,5.00
2023-04-23T13:19:40.491Z,4.90
2023-04-23T13:22:09.951Z,8.13
2023-04-23T13:24:37.765Z,5.37
2023-04-23T13:27:05.992Z,6.78
2023-04-23T13:29:35.417Z,6.67
2023-04-23T13:32:03.500Z,8.35
2023-04-23T13:34:31.534Z,9.03
2023-04-23T13:36:59.100Z,9.38
2023-04-23T13:39:27.482Z,6.78
2023-04-23T13:42:09.043Z,8.05
2023-04-23T13:44:28.780Z,8.40
2023-04-23T13:46:58.276Z,7.17
2023-04-23T13:49:28.169Z,4.92
2023-04-23T13:52:01.245Z,6.37
2023-04-23T13:54:29.747Z,8.20
2023-04-23T13:56:58.128Z,6.67
2023-04-23T13:59:27.127Z,6.75
2023-04-23T14:01:54.585Z,6.62
2023-04-23T14:04:24.618Z,7.45
2023-04-23T14:06:52.565Z,6.30
2023-04-23T14:09:22.571Z,5.55
2023-04-23T14:11:51.542Z,5.22
2023-04-23T14:14:19.378Z,7.40
2023-04-23T14:16:47.100Z,8.80
2023-04-23T14:19:15.433Z,5.47
2023-04-23T14:21:43.254Z,4.40
2023-04-23T14:24:26.102Z,8.38
2023-04-23T14:26:54.437Z,7.00
2023-04-23T14:29:45.049Z,8.53
2023-04-23T14:32:13.402Z,5.42
2023-04-23T14:34:41.091Z,4.70
2023-04-23T14:37:10.004Z,5.30
2023-04-23T14:39:38.199Z,6.58
2023-04-23T14:42:06.581Z,6.45
2023-04-23T14:44:34.267Z,9.48
2023-04-23T14:47:02.003Z,6.28
2023-04-23T14:49:30.798Z,6.67
2023-04-23T14:52:01.763Z,6.70
2023-04-23T14:54:29.352Z,6.12
2023-04-23T14:56:57.741Z,9.13
2023-04-23T14:59:25.868Z,6.37
2023-04-23T15:01:53.977Z,5.78
2023-04-23T15:04:21.818Z,7.47
2023-04-23T15:06:50.242Z,5.95
2023-04-23T15:09:18.167Z,6.87
2023-04-23T15:11:46.468Z,5.62
2023-04-23T15:14:26.388Z,4.67
2023-04-23T15:16:54.149Z,4.92
2023-04-23T15:19:21.734Z,7.10
2023-04-23T15:21:50.245Z,5.60
2023-04-23T15:24:18.019Z,8.88
2023-04-23T15:26:50.028Z,11.30
2023-04-23T15:29:17.905Z,6.87
2023-04-23T15:31:46.293Z,7.65
2023-04-23T15:34:14.082Z,11.48
2023-04-23T15:36:43.085Z,4.70
2023-04-23T15:39:11.317Z,6.67
2023-04-23T15:41:40.955Z,7.22
2023-04-23T15:44:16.267Z,4.53
2023-04-23T15:46:44.325Z,5.05
2023-04-23T15:49:12.313Z,4.90
2023-04-23T15:51:40.357Z,4.03
2023-04-23T15:54:08.966Z,6.28
2023-04-23T15:56:37.274Z,5.45
2023-04-23T15:59:04.876Z,5.55
2023-04-23T16:01:33.381Z,4.95
2023-04-23T16:04:10.252Z,5.95
2023-04-23T16:06:50.862Z,5.45
2023-04-23T16:09:19.282Z,4.28
2023-04-23T16:11:47.621Z,5.83
2023-04-23T16:14:15.453Z,6.30
2023-04-23T16:16:43.413Z,4.35
2023-04-23T16:19:12.088Z,3.83
2023-04-23T16:21:40.344Z,4.75
2023-04-23T16:24:17.558Z,5.25
2023-04-23T16:26:45.790Z,5.35
2023-04-23T16:31:43.066Z,6.85
2023-04-23T16:34:12.606Z,6.87
2023-04-23T16:36:40.309Z,6.17
2023-04-23T16:39:08.037Z,6.67
2023-04-23T16:41:35.903Z,6.72
2023-04-23T16:44:03.546Z,3.72
2023-04-23T16:46:32.040Z,4.15
2023-04-23T16:49:00.201Z,6.92
2023-04-23T16:51:29.219Z,5.65
2023-04-23T16:53:57.544Z,7.05
2023-04-23T16:56:26.977Z,4.33
2023-04-23T16:58:55.103Z,5.95
2023-04-23T17:01:23.288Z,8.03
2023-04-23T17:03:51.290Z,6.50
2023-04-23T17:06:30.244Z,4.47
2023-04-23T17:09:00.526Z,2.75
2023-04-23T17:11:30.749Z,5.10
2023-04-23T17:13:58.482Z,5.90
2023-04-23T17:16:29.436Z,4.60
2023-04-23T17:18:58.645Z,5.60
2023-04-23T17:21:27.621Z,8.75
2023-04-23T17:23:55.424Z,3.92
2023-04-23T17:26:23.655Z,6.92
2023-04-23T17:28:51.446Z,5.35
2023-04-23T17:31:19.422Z,4.50
2023-04-23T17:33:51.934Z,5.85
2023-04-23T17:36:20.215Z,5.55
2023-04-23T17:38:48.319Z,9.40
2023-04-23T17:41:18.091Z,5.75
2023-04-23T17:43:49.625Z,6.67
2023-04-23T17:46:17.610Z,6.72
2023-04-23T17:48:46.144Z,5.87
2023-04-23T17:51:14.200Z,5.60
2023-04-23T17:53:48.868Z,8.95
2023-04-23T17:56:16.697Z,5.25
2023-04-23T17:59:09.596Z,5.45
2023-04-23T18:01:37.934Z,5.90
2023-04-23T18:04:06.215Z,6.28
2023-04-23T18:06:36.160Z,9.28
2023-04-23T18:09:03.756Z,6.12
2023-04-23T18:11:31.643Z,6.78
2023-04-23T18:13:59.280Z,6.05
2023-04-23T18:16:27.376Z,9.03
2023-04-23T18:18:55.211Z,9.18
2023-04-23T18:21:23.724Z,6.30
2023-04-23T18:23:51.798Z,6.95
2023-04-23T18:26:20.697Z,8.80
2023-04-23T18:28:48.623Z,7.22
2023-04-23T18:31:16.840Z,8.78
2023-04-23T18:33:57.660Z,10.53
2023-04-23T18:36:28.646Z,8.30
2023-04-23T18:38:56.782Z,8.50
2023-04-23T18:41:24.840Z,6.65
2023-04-23T18:43:52.822Z,8.65
2023-04-23T18:46:22.451Z,8.70
2023-04-23T18:48:58.208Z,7.28
2023-04-23T18:51:42.685Z,8.05
2023-04-23T18:54:12.489Z,13.53
2023-04-23T18:56:41.859Z,9.25
2023-04-23T18:59:10.034Z,10.65
2023-04-23T19:01:40.231Z,9.35
2023-04-23T19:04:08.398Z,9.80
2023-04-23T19:06:36.542Z,9.73
2023-04-23T19:09:07.559Z,9.43
2023-04-23T19:11:36.036Z,8.33
2023-04-23T19:14:04.317Z,11.68
2023-04-23T19:16:33.164Z,10.58
2023-04-23T19:19:00.738Z,10.28
2023-04-23T19:21:29.037Z,15.38
2023-04-23T19:23:57.106Z,10.25
2023-04-23T19:26:25.431Z,10.82
2023-04-23T19:28:53.634Z,9.30
2023-04-23T19:31:22.342Z,10.03
2023-04-23T19:33:51.725Z,9.58
2023-04-23T19:36:21.264Z,10.63
2023-04-23T19:38:49.844Z,9.80
2023-04-23T19:41:17.897Z,12.55
2023-04-23T19:43:45.354Z,10.38
2023-04-23T19:46:15.346Z,9.20
2023-04-23T19:48:44.649Z,11.70
2023-04-23T19:51:13.280Z,10.98
2023-04-23T19:53:53.034Z,10.98
2023-04-23T19:56:24.352Z,9.58
2023-04-23T19:58:54.478Z,8.88
2023-04-23T20:01:22.737Z,9.88
2023-04-23T20:03:52.565Z,9.20
2023-04-23T20:06:21.204Z,10.13
2023-04-23T20:09:06.462Z,10.05
2023-04-23T20:11:35.646Z,9.90
2023-04-23T20:14:04.261Z,9.03
2023-04-23T20:16:32.593Z,9.38
2023-04-23T20:19:02.953Z,11.40
2023-04-23T20:21:31.047Z,15.03
2023-04-23T20:23:58.483Z,11.10
2023-04-23T20:26:26.681Z,10.15
2023-04-23T20:28:55.120Z,8.90
2023-04-23T20:31:22.787Z,10.90
2023-04-23T20:33:50.562Z,10.53
2023-04-23T20:36:18.270Z,9.35
2023-04-23T20:38:47.513Z,10.28
2023-04-23T20:41:15.660Z,9.50
2023-04-23T20:43:43.850Z,9.58
2023-04-23T20:46:11.811Z,6.70
2023-04-23T20:48:39.590Z,6.78
2023-04-23T20:51:08.224Z,7.17
2023-04-23T20:53:36.639Z,9.10
2023-04-23T20:56:04.659Z,11.48
2023-04-23T20:58:32.809Z,8.93
2023-04-23T21:01:00.341Z,10.08
2023-04-23T21:03:28.759Z,7.67
2023-04-23T21:05:56.606Z,8.13
2023-04-23T21:08:24.418Z,9.70
2023-04-23T21:10:52.133Z,8.40
2023-04-23T21:13:20.466Z,8.73
2023-04-23T21:15:48.599Z,8.88
2023-04-23T21:18:16.743Z,8.75
2023-04-23T21:20:49.466Z,7.12
2023-04-23T21:26:06.066Z,7.03
2023-04-23T21:28:33.756Z,6.70
2023-04-23T21:31:05.203Z,7.42
2023-04-23T21:33:33.390Z,5.47
2023-04-23T21:36:01.037Z,7.60
2023-04-23T21:38:29.240Z,6.22
2023-04-23T21:40:56.960Z,6.87
2023-04-23T21:43:24.758Z,6.83
2023-04-23T21:45:52.181Z,6.15
2023-04-23T21:48:20.112Z,6.20
2023-04-23T21:50:48.332Z,6.97
2023-04-23T21:53:16.271Z,4.50
2023-04-23T21:55:47.310Z,8.38
2023-04-23T21:58:17.810Z,4.62
2023-04-23T22:00:46.408Z,5.00
2023-04-23T22:03:30.755Z,6.05
2023-04-23T22:05:44.551Z,6.05
2023-04-23T22:08:12.392Z,8.63
2023-04-23T22:10:41.502Z,5.90
2023-04-23T22:13:09.838Z,7.42
2023-04-23T22:15:37.946Z,6.50
2023-04-23T22:18:06.095Z,5.95
2023-04-23T22:20:33.991Z,9.20
2023-04-23T22:23:01.496Z,8.48
2023-04-23T22:25:29.839Z,7.30
2023-04-23T22:27:57.627Z,9.60
2023-04-23T22:30:25.902Z,7.30
2023-04-23T22:32:55.420Z,6.78
2023-04-23T22:35:22.856Z,8.68
2023-04-23T22:37:53.975Z,9.05
2023-04-23T22:40:21.854Z,7.03
2023-04-23T22:42:49.846Z,7.50
2023-04-23T22:45:17.888Z,7.35
2023-04-23T22:47:45.983Z,9.20
2023-04-23T22:50:14.030Z,7.83
2023-04-23T22:52:42.742Z,7.40
2023-04-23T22:55:10.560Z,7.40
2023-04-23T22:57:41.634Z,10.35
2023-04-23T23:00:11.658Z,7.92
2023-04-23T23:02:40.070Z,7.28
2023-04-23T23:05:08.502Z,6.30
2023-04-23T23:07:36.681Z,6.05
2023-04-23T23:10:04.982Z,6.12
2023-04-23T23:12:32.821Z,15.38
2023-04-23T23:15:00.937Z,6.67
2023-04-23T23:17:28.762Z,8.08
2023-04-23T23:19:56.871Z,7.35
2023-04-23T23:22:24.573Z,6.05
2023-04-23T23:24:52.917Z,7.58
2023-04-23T23:27:20.514Z,7.78
2023-04-23T23:29:48.436Z,6.40
2023-04-23T23:32:16.281Z,6.20
2023-04-23T23:34:44.288Z,5.70
2023-04-23T23:37:12.511Z,6.65
2023-04-23T23:39:40.397Z,12.55
2023-04-23T23:42:08.753Z,6.95
2023-04-23T23:44:36.657Z,6.42
2023-04-23T23:47:04.776Z,5.95
2023-04-23T23:49:32.920Z,5.97
2023-04-23T23:52:00.638Z,6.03
2023-04-23T23:54:28.539Z,5.55
2023-04-23T23:56:57.415Z,5.50
2023-04-23T23:59:25.410Z,7.00
